createdAt,value
2018-11-28T00:01:59.294Z,34.13
2018-11-28T00:05:02.504Z,32.27
2018-11-28T00:08:05.746Z,36.70
2018-11-28T00:11:08.785Z,34.03
2018-11-28T00:14:11.841Z,33.23
2018-11-28T00:17:14.853Z,30.57
2018-11-28T00:20:22.228Z,26.83
2018-11-28T00:23:25.345Z,29.07
2018-11-28T00:26:28.414Z,26.80
2018-11-28T00:29:31.479Z,26.13
2018-11-28T00:32:34.493Z,26.57
2018-11-28T00:35:37.725Z,21.20
2018-11-28T00:38:40.781Z,21.57
2018-11-28T00:41:44.117Z,20.73
2018-11-28T00:44:47.365Z,26.37
2018-11-28T00:47:50.438Z,19.97
2018-11-28T00:50:53.461Z,24.00
2018-11-28T00:53:56.569Z,24.43
2018-11-28T00:56:59.645Z,23.50
2018-11-28T01:00:02.777Z,21.60
2018-11-28T01:03:05.833Z,22.37
2018-11-28T01:06:09.085Z,20.03
2018-11-28T01:09:12.121Z,21.63
2018-11-28T01:12:15.185Z,20.30
2018-11-28T01:15:18.634Z,24.13
2018-11-28T01:18:22.153Z,31.07
2018-11-28T01:21:25.204Z,22.63
2018-11-28T01:24:28.333Z,22.57
2018-11-28T01:27:31.393Z,25.30
2018-11-28T01:30:34.529Z,25.40
2018-11-28T01:33:37.581Z,25.20
2018-11-28T01:36:40.809Z,30.80
2018-11-28T01:39:43.867Z,21.10
2018-11-28T01:42:47.002Z,22.17
2018-11-28T01:45:50.151Z,19.77
2018-11-28T01:48:53.177Z,21.53
2018-11-28T01:51:56.240Z,26.60
2018-11-28T01:54:59.361Z,21.27
2018-11-28T01:58:02.422Z,20.80
2018-11-28T02:01:05.453Z,22.63
2018-11-28T02:04:08.482Z,24.20
2018-11-28T02:07:11.841Z,19.40
2018-11-28T02:10:15.709Z,23.53
2018-11-28T02:13:18.941Z,18.60
2018-11-28T02:16:22.000Z,19.53
2018-11-28T02:19:25.016Z,24.77
2018-11-28T02:22:28.085Z,18.97
2018-11-28T02:25:31.106Z,30.30
2018-11-28T02:28:34.165Z,20.87
2018-11-28T02:31:37.193Z,30.10
2018-11-28T02:34:40.256Z,32.93
2018-11-28T02:37:43.582Z,26.50
2018-11-28T02:40:47.372Z,20.90
2018-11-28T02:43:50.487Z,19.23
2018-11-28T02:46:54.385Z,15.73
2018-11-28T02:49:57.589Z,20.97
2018-11-28T02:53:00.657Z,25.13
2018-11-28T02:56:03.816Z,23.57
2018-11-28T02:59:06.861Z,23.37
2018-11-28T03:02:09.990Z,27.90
2018-11-28T03:05:13.440Z,21.20
2018-11-28T03:08:16.853Z,21.80
2018-11-28T03:11:19.845Z,18.57
2018-11-28T03:14:23.185Z,24.27
2018-11-28T03:17:26.245Z,33.70
2018-11-28T03:20:29.374Z,30.03
2018-11-28T03:23:32.551Z,25.40
2018-11-28T03:26:35.753Z,21.80
2018-11-28T03:29:38.813Z,28.80
2018-11-28T03:32:42.002Z,24.40
2018-11-28T03:35:45.099Z,24.53
2018-11-28T03:38:48.125Z,24.90
2018-11-28T03:41:51.181Z,25.67
2018-11-28T03:44:54.309Z,26.13
2018-11-28T03:47:57.365Z,23.57
2018-11-28T03:51:00.844Z,19.03
2018-11-28T03:54:03.863Z,19.10
2018-11-28T03:57:06.986Z,22.00
2018-11-28T04:00:12.430Z,24.17
2018-11-28T04:03:15.509Z,30.13
2018-11-28T04:06:18.585Z,26.07
2018-11-28T04:09:21.677Z,24.83
2018-11-28T04:12:24.645Z,23.67
2018-11-28T04:15:27.742Z,24.50
2018-11-28T04:18:30.750Z,24.70
2018-11-28T04:21:33.774Z,21.63
2018-11-28T04:24:36.830Z,19.20
2018-11-28T04:27:39.836Z,20.20
2018-11-28T04:30:42.997Z,17.57
2018-11-28T04:33:46.041Z,18.07
2018-11-28T04:36:49.109Z,19.17
2018-11-28T04:39:52.093Z,33.17
2018-11-28T04:42:55.186Z,28.30
2018-11-28T04:45:58.174Z,31.97
2018-11-28T04:49:01.172Z,30.60
2018-11-28T04:52:04.129Z,27.53
2018-11-28T04:55:10.626Z,25.47
2018-11-28T04:58:14.026Z,26.00
2018-11-28T05:01:17.017Z,29.37
2018-11-28T05:04:20.005Z,24.40
2018-11-28T05:07:27.066Z,26.33
2018-11-28T05:10:30.598Z,29.67
2018-11-28T05:13:33.685Z,30.50
2018-11-28T05:16:36.780Z,28.60
2018-11-28T05:19:40.489Z,32.17
2018-11-28T05:22:43.581Z,32.43
2018-11-28T05:25:46.569Z,32.93
2018-11-28T05:28:49.565Z,27.07
2018-11-28T05:31:52.557Z,25.10
2018-11-28T05:34:55.546Z,25.17
2018-11-28T05:37:58.633Z,31.57
2018-11-28T05:41:01.626Z,30.77
2018-11-28T05:44:04.721Z,28.00
2018-11-28T05:47:07.816Z,25.33
2018-11-28T05:50:12.027Z,30.80
2018-11-28T05:53:14.996Z,25.93
2018-11-28T05:56:18.008Z,26.97
2018-11-28T05:59:21.000Z,33.40
2018-11-28T06:02:23.973Z,25.57
2018-11-28T06:05:27.081Z,26.73
2018-11-28T06:08:30.072Z,30.60
2018-11-28T06:11:33.061Z,32.33
2018-11-28T06:14:36.029Z,33.93
2018-11-28T06:17:39.050Z,25.03
2018-11-28T06:20:42.137Z,28.00
2018-11-28T06:23:45.127Z,23.63
2018-11-28T06:26:48.150Z,22.60
2018-11-28T06:29:51.205Z,24.80
2018-11-28T06:32:54.201Z,24.63
2018-11-28T06:35:57.225Z,23.23
2018-11-28T06:39:00.281Z,32.03
2018-11-28T06:42:03.377Z,28.00
2018-11-28T06:45:09.129Z,24.37
2018-11-28T06:48:12.221Z,33.60
2018-11-28T06:51:15.189Z,24.63
2018-11-28T06:54:18.205Z,35.13
2018-11-28T06:57:21.193Z,34.43
2018-11-28T07:00:24.184Z,27.40
2018-11-28T07:03:27.172Z,30.67
2018-11-28T07:06:30.194Z,26.57
2018-11-28T07:09:33.268Z,35.07
2018-11-28T07:12:36.333Z,32.17
2018-11-28T07:15:39.357Z,36.30
2018-11-28T07:19:06.705Z,32.87
2018-11-28T07:22:09.693Z,29.63
2018-11-28T07:25:14.631Z,33.80
2018-11-28T07:28:17.619Z,29.70
2018-11-28T07:31:20.615Z,39.77
2018-11-28T07:34:23.701Z,33.90
2018-11-28T07:37:26.693Z,33.33
2018-11-28T07:40:30.230Z,36.17
2018-11-28T07:43:33.284Z,36.23
2018-11-28T07:46:36.259Z,38.13
2018-11-28T07:49:39.269Z,43.83
2018-11-28T07:52:42.361Z,41.53
2018-11-28T07:55:45.589Z,41.33
2018-11-28T07:58:48.649Z,46.90
2018-11-28T08:01:51.637Z,47.97
2018-11-28T08:04:54.631Z,43.60
2018-11-28T08:07:57.621Z,47.50
2018-11-28T08:11:00.609Z,41.70
2018-11-28T08:14:03.601Z,35.73
2018-11-28T08:17:06.592Z,34.63
2018-11-28T08:20:09.689Z,37.20
2018-11-28T08:23:12.801Z,40.07
2018-11-28T08:26:15.870Z,37.20
2018-11-28T08:29:18.857Z,46.97
2018-11-28T08:32:21.853Z,45.07
2018-11-28T08:35:25.353Z,43.87
2018-11-28T08:38:28.344Z,48.20
2018-11-28T08:41:31.329Z,53.93
2018-11-28T08:44:34.322Z,48.93
2018-11-28T08:47:37.309Z,49.10
2018-11-28T08:50:40.336Z,53.23
2018-11-28T08:53:43.393Z,49.60
2018-11-28T08:56:46.385Z,46.27
2018-11-28T08:59:49.304Z,57.60
2018-11-28T09:02:54.417Z,55.80
2018-11-28T09:05:57.428Z,56.13
2018-11-28T09:09:00.423Z,60.90
2018-11-28T09:12:03.585Z,67.23
2018-11-28T09:15:11.080Z,71.80
2018-11-28T09:18:14.122Z,68.30
2018-11-28T09:21:17.195Z,74.67
2018-11-28T09:24:20.199Z,69.83
2018-11-28T09:27:23.258Z,63.57
2018-11-28T09:30:26.369Z,59.27
2018-11-28T09:33:29.361Z,62.47
2018-11-28T09:36:32.362Z,66.40
2018-11-28T09:39:35.451Z,59.27
2018-11-28T09:42:38.821Z,63.97
2018-11-28T09:45:42.271Z,56.77
2018-11-28T09:48:45.345Z,56.73
2018-11-28T09:51:48.533Z,49.60
2018-11-28T09:54:51.626Z,51.20
2018-11-28T09:57:54.924Z,46.70
2018-11-28T10:00:58.065Z,57.67
2018-11-28T10:04:01.110Z,51.83
2018-11-28T10:07:04.101Z,42.80
2018-11-28T10:10:09.823Z,46.80
2018-11-28T10:13:12.983Z,48.93
2018-11-28T10:16:16.037Z,40.80
2018-11-28T10:19:19.029Z,40.27
2018-11-28T10:22:22.021Z,40.47
2018-11-28T10:25:26.033Z,39.13
2018-11-28T10:28:29.030Z,41.77
2018-11-28T10:31:32.117Z,40.33
2018-11-28T10:34:36.293Z,34.33
2018-11-28T10:37:39.460Z,35.00
2018-11-28T10:40:42.610Z,34.73
2018-11-28T10:43:45.612Z,33.50
2018-11-28T10:46:48.611Z,30.70
2018-11-28T10:49:51.593Z,28.90
2018-11-28T10:52:54.717Z,30.03
2018-11-28T10:55:57.780Z,29.63
2018-11-28T10:59:00.770Z,28.33
2018-11-28T11:02:09.281Z,27.60
2018-11-28T11:05:17.589Z,29.23
2018-11-28T11:08:25.741Z,25.73
2018-11-28T11:11:34.446Z,24.63
2018-11-28T11:14:43.025Z,25.17
2018-11-28T11:17:46.058Z,26.90
2018-11-28T11:20:49.180Z,20.83
2018-11-28T11:23:52.541Z,25.87
2018-11-28T11:26:55.539Z,23.97
2018-11-28T11:29:58.894Z,23.60
2018-11-28T11:33:01.927Z,21.87
2018-11-28T11:36:05.469Z,28.70
2018-11-28T11:39:08.709Z,25.43
2018-11-28T11:42:11.850Z,24.80
2018-11-28T11:45:15.321Z,22.37
2018-11-28T11:48:18.657Z,24.03
2018-11-28T11:51:21.695Z,22.37
2018-11-28T11:54:24.737Z,20.77
2018-11-28T11:57:27.797Z,18.57
2018-11-28T12:00:30.833Z,22.87
2018-11-28T12:03:34.937Z,19.70
2018-11-28T12:06:37.995Z,21.73
2018-11-28T12:09:41.025Z,19.07
2018-11-28T12:12:44.178Z,17.12
2018-11-28T12:15:47.205Z,20.47
2018-11-28T12:18:50.433Z,19.03
2018-11-28T12:21:53.434Z,22.67
2018-11-28T12:24:56.484Z,21.07
2018-11-28T12:27:59.537Z,21.57
2018-11-28T12:31:02.605Z,17.67
2018-11-28T12:34:05.935Z,18.60
2018-11-28T12:37:09.168Z,20.77
2018-11-28T12:40:14.115Z,23.85
2018-11-28T12:43:17.366Z,21.87
2018-11-28T12:46:21.029Z,20.70
2018-11-28T12:49:24.109Z,23.57
2018-11-28T12:52:27.154Z,20.68
2018-11-28T12:55:31.886Z,20.17
2018-11-28T12:58:34.972Z,26.55
2018-11-28T13:01:38.922Z,26.17
2018-11-28T13:04:42.025Z,25.43
2018-11-28T13:07:45.102Z,27.67
2018-11-28T13:10:48.200Z,27.90
2018-11-28T13:13:51.316Z,32.40
2018-11-28T13:16:54.687Z,34.40
2018-11-28T13:19:59.078Z,32.93
2018-11-28T13:23:01.039Z,31.63
2018-11-28T13:26:04.445Z,32.83
2018-11-28T13:29:07.449Z,43.30
2018-11-28T13:32:10.511Z,35.57
2018-11-28T13:35:17.450Z,33.20
2018-11-28T13:41:23.521Z,34.27
2018-11-28T13:44:26.600Z,40.87
2018-11-28T13:47:29.709Z,38.90
2018-11-28T13:50:32.777Z,30.87
2018-11-28T13:53:35.762Z,33.07
2018-11-28T13:59:42.179Z,38.60
2018-11-28T14:02:45.282Z,37.90
2018-11-28T14:05:49.110Z,36.67
2018-11-28T14:08:52.180Z,35.37
2018-11-28T14:11:55.241Z,35.43
2018-11-28T14:14:58.364Z,38.17
2018-11-28T14:18:04.377Z,46.07
2018-11-28T14:21:07.529Z,46.37
2018-11-28T14:24:10.592Z,41.03
2018-11-28T14:27:13.720Z,42.77
2018-11-28T14:30:20.517Z,45.27
2018-11-28T14:33:23.577Z,44.70
2018-11-28T14:36:26.644Z,48.93
2018-11-28T14:39:29.986Z,48.70
2018-11-28T14:42:33.029Z,50.17
2018-11-28T14:45:36.594Z,48.33
2018-11-28T14:48:39.628Z,50.40
2018-11-28T14:51:42.746Z,52.57
2018-11-28T14:54:46.051Z,47.37
2018-11-28T14:57:49.137Z,47.33
2018-11-28T15:00:52.246Z,49.77
2018-11-28T15:03:55.609Z,49.87
2018-11-28T15:07:00.451Z,50.13
2018-11-28T15:10:03.836Z,47.57
2018-11-28T15:13:06.868Z,48.83
2018-11-28T15:16:09.956Z,50.43
2018-11-28T15:19:13.547Z,51.80
2018-11-28T15:22:16.753Z,55.40
2018-11-28T15:25:19.913Z,48.97
2018-11-28T15:28:22.905Z,51.60
2018-11-28T15:31:26.013Z,55.03
2018-11-28T15:34:29.093Z,53.27
2018-11-28T15:37:32.130Z,50.53
2018-11-28T15:40:35.277Z,63.50
2018-11-28T15:43:38.405Z,53.40
2018-11-28T15:46:41.549Z,51.80
2018-11-28T15:49:44.593Z,53.87
2018-11-28T15:52:47.653Z,63.13
2018-11-28T15:55:50.741Z,50.80
2018-11-28T15:58:53.763Z,55.30
2018-11-28T16:01:57.552Z,60.17
2018-11-28T16:05:01.614Z,64.90
2018-11-28T16:08:05.202Z,49.03
2018-11-28T16:11:10.764Z,59.47
2018-11-28T16:14:15.020Z,55.07
2018-11-28T16:17:18.263Z,63.80
2018-11-28T16:20:21.317Z,54.53
2018-11-28T16:23:24.348Z,50.40
2018-11-28T16:26:27.408Z,56.47
2018-11-28T16:29:30.405Z,56.87
2018-11-28T16:32:33.518Z,55.03
2018-11-28T16:35:37.198Z,50.20
2018-11-28T16:38:40.269Z,56.97
2018-11-28T16:41:44.065Z,54.10
2018-11-28T16:44:47.089Z,50.87
2018-11-28T16:47:50.390Z,47.20
2018-11-28T16:50:53.513Z,62.87
2018-11-28T16:53:56.573Z,52.87
2018-11-28T16:57:00.165Z,53.13
2018-11-28T17:00:04.585Z,61.37
2018-11-28T17:03:07.726Z,57.13
2018-11-28T17:06:10.785Z,63.13
2018-11-28T17:09:13.777Z,66.50
2018-11-28T17:12:16.869Z,67.30
2018-11-28T17:15:20.269Z,54.13
2018-11-28T17:18:23.658Z,58.80
2018-11-28T17:21:26.654Z,65.07
2018-11-28T17:24:29.721Z,77.70
2018-11-28T17:27:32.741Z,73.30
2018-11-28T17:30:36.343Z,65.43
2018-11-28T17:33:45.325Z,61.10
2018-11-28T17:36:48.397Z,49.70
2018-11-28T17:39:51.455Z,50.70
2018-11-28T17:42:55.559Z,54.80
2018-11-28T17:45:58.597Z,51.70
2018-11-28T17:49:01.864Z,54.57
2018-11-28T17:52:05.114Z,56.10
2018-11-28T17:55:10.481Z,52.27
2018-11-28T17:58:13.749Z,44.43
2018-11-28T18:01:16.938Z,52.33
2018-11-28T18:04:20.924Z,55.57
2018-11-28T18:07:24.001Z,42.37
2018-11-28T18:10:27.134Z,48.50
2018-11-28T18:13:30.189Z,46.53
2018-11-28T18:16:33.418Z,46.87
2018-11-28T18:19:36.581Z,52.13
2018-11-28T18:22:39.813Z,44.40
2018-11-28T18:25:43.691Z,47.80
2018-11-28T18:28:52.105Z,47.27
2018-11-28T18:31:55.815Z,48.60
2018-11-28T18:34:59.349Z,45.40
2018-11-28T18:38:02.515Z,46.87
2018-11-28T18:41:07.026Z,50.67
2018-11-28T18:44:10.173Z,50.50
2018-11-28T18:47:13.321Z,50.33
2018-11-28T18:50:17.735Z,53.67
2018-11-28T18:53:20.737Z,51.23
2018-11-28T18:56:24.784Z,66.47
2018-11-28T18:59:27.841Z,57.70
2018-11-28T19:02:30.833Z,55.23
2018-11-28T19:05:33.822Z,56.37
2018-11-28T19:08:36.817Z,53.03
2018-11-28T19:11:39.840Z,58.93
2018-11-28T19:14:43.026Z,54.77
2018-11-28T19:17:46.714Z,72.60
2018-11-28T19:20:49.818Z,68.50
2018-11-28T19:23:53.219Z,69.60
2018-11-28T19:26:56.398Z,78.60
2018-11-28T19:29:59.385Z,76.33
2018-11-28T19:33:02.531Z,76.03
2018-11-28T19:36:05.678Z,76.40
2018-11-28T19:39:09.549Z,71.90
2018-11-28T19:42:12.554Z,85.00
2018-11-28T19:45:15.569Z,81.77
2018-11-28T19:48:19.455Z,94.17
2018-11-28T19:51:22.573Z,104.70
2018-11-28T19:54:25.561Z,91.77
2018-11-28T19:57:28.562Z,87.43
2018-11-28T20:00:31.641Z,102.37
2018-11-28T20:03:34.669Z,97.97
2018-11-28T20:06:37.829Z,101.57
2018-11-28T20:09:40.821Z,107.70
2018-11-28T20:12:44.013Z,116.67
2018-11-28T20:15:48.856Z,111.80
2018-11-28T20:18:51.973Z,111.33
2018-11-28T20:21:55.133Z,113.23
2018-11-28T20:24:58.126Z,116.93
2018-11-28T20:28:01.113Z,112.13
2018-11-28T20:31:04.291Z,133.57
2018-11-28T20:34:07.306Z,144.63
2018-11-28T20:37:10.297Z,129.60
2018-11-28T20:40:15.476Z,135.13
2018-11-28T20:43:18.532Z,128.50
2018-11-28T20:46:21.517Z,145.07
2018-11-28T20:49:24.481Z,140.00
2018-11-28T20:52:27.497Z,141.87
2018-11-28T20:55:30.520Z,146.93
2018-11-28T20:58:33.580Z,139.97
2018-11-28T21:01:36.714Z,138.33
2018-11-28T21:04:39.801Z,145.93
2018-11-28T21:07:42.893Z,147.30
2018-11-28T21:10:45.925Z,140.23
2018-11-28T21:13:48.982Z,139.30
2018-11-28T21:16:51.976Z,135.47
2018-11-28T21:19:59.546Z,137.90
2018-11-28T21:23:13.961Z,136.77
2018-11-28T21:26:17.149Z,135.33
2018-11-28T21:29:20.210Z,128.77
2018-11-28T21:32:23.312Z,135.47
2018-11-28T21:35:27.611Z,133.07
2018-11-28T21:38:30.648Z,138.60
2018-11-28T21:41:34.400Z,115.37
2018-11-28T21:44:37.421Z,117.13
2018-11-28T21:47:40.491Z,122.77
2018-11-28T21:50:43.630Z,122.53
2018-11-28T21:53:47.921Z,117.43
2018-11-28T21:56:51.013Z,116.87
2018-11-28T21:59:54.017Z,126.20
2018-11-28T22:02:57.113Z,112.37
2018-11-28T22:06:12.780Z,122.43
2018-11-28T22:09:15.809Z,112.30
2018-11-28T22:12:18.874Z,113.63
2018-11-28T22:15:22.105Z,114.47
2018-11-28T22:18:25.352Z,123.33
2018-11-28T22:21:28.360Z,109.87
2018-11-28T22:24:31.580Z,102.33
2018-11-28T22:27:34.641Z,107.53
2018-11-28T22:30:37.705Z,115.07
2018-11-28T22:33:40.749Z,109.10
2018-11-28T22:36:43.958Z,110.87
2018-11-28T22:39:47.009Z,122.03
2018-11-28T22:42:50.147Z,101.77
2018-11-28T22:45:53.197Z,110.27
2018-11-28T22:48:56.328Z,111.80
2018-11-28T22:51:59.391Z,113.03
2018-11-28T22:55:02.714Z,116.83
2018-11-28T22:58:05.777Z,116.37
2018-11-28T23:01:10.576Z,109.13
2018-11-28T23:04:13.598Z,111.60
2018-11-28T23:07:32.307Z,108.83
2018-11-28T23:10:35.634Z,115.67
2018-11-28T23:13:38.989Z,98.27
2018-11-28T23:16:42.159Z,112.07
2018-11-28T23:19:45.289Z,112.20
2018-11-28T23:22:48.334Z,114.47
2018-11-28T23:25:51.565Z,96.73
2018-11-28T23:28:54.621Z,110.17
2018-11-28T23:31:57.658Z,116.80
2018-11-28T23:35:00.701Z,106.33
2018-11-28T23:38:04.033Z,114.00
2018-11-28T23:41:07.141Z,104.80
2018-11-28T23:44:10.535Z,105.17
2018-11-28T23:47:13.633Z,98.17
2018-11-28T23:50:19.397Z,93.57
2018-11-28T23:53:22.479Z,103.27
2018-11-28T23:56:25.565Z,103.17
2018-11-28T23:59:28.621Z,100.33
